KINT

Smith Reynolds Airport

Winston Salem, North Carolina, USA
METAR KINT 161454Z 25006KT 10SM CLR 04/M02 A3006 RMK AO2 SLP184 T00391017 51019
Observed Flight Rules
Nov-16 @ 14:54 UTC (an hour ago) Visual Flight Rules
Wind Visibility Clouds
250° at 6 knots 10 miles
  • Clear skies
Temperatures Readings
Current 4°C / 39°F
Dewpoint -2°C / 28°F
Humidity 65%
Altimeter 30.06" Hg
Pressure 1018.4 hPa
Elevation 291
METAR KINT 161454Z 25006KT 10SM CLR 04/M02 A3006 RMK AO2 SLP184 T00391017 51019
Observed Flight Rules
Nov-16 @ 14:54 UTC
(an hour ago)
VFR
Wind Visibility
250° at 6 knots 10 miles
Clouds
  • Clear skies
Temperature Dewpoint
4°C / 39°F -2°C / 28°F
Humidity Altimeter Pressure
65% 30.06" Hg 1018.4 hPa